Time;durP1;ratioP1;P1;durP2;ratioP2;P2;SDS_P1;SDS_P2;PMS_P1;PMS_P2;Temp;Humidity;BMP_temperature;BMP_pressure;BME280_temperature;BME280_humidity;BME280_pressure;Samples;Min_cycle;Max_cycle;Signal;HPM_P1;HPM_P2
2021/08/28 00:01:22;;;;;;;;;;;;;;;-144.99;100.00;52366.56;5027161;28;20510;-69
2021/08/28 00:03:48;;;;;;;;;;;;;;;-144.99;100.00;52338.03;5027687;28;20383;-69
2021/08/28 00:06:15;;;;;;;;;;;;;;;-144.99;100.00;52366.56;5025492;28;19978;-68
2021/08/28 00:08:41;;;;;;;;;;;;;;;-144.99;100.00;52338.03;5030476;28;20101;-69
2021/08/28 00:11:08;;;;;;;;;;;;;;;-144.99;100.00;52358.41;5030335;28;19952;-68
2021/08/28 00:13:34;;;;;;;;;;;;;;;-144.99;100.00;52391.03;5032705;28;20478;-70
2021/08/28 00:16:02;;;;;;;;;;;;;;;-144.99;100.00;52346.19;5039961;28;19977;-68
2021/08/28 00:18:28;;;;;;;;;;;;;;;-144.99;100.00;52354.34;5039182;28;19986;-68
2021/08/28 00:20:54;;;;;;;;;;;;;;;-144.99;100.00;52315.59;5047696;28;19972;-67
2021/08/28 00:23:21;;;;;;;;;;;;;;;-144.99;100.00;52354.34;5048827;28;19972;-72
2021/08/28 00:25:47;;;;;;;;;;;;;;;-144.99;100.00;52370.63;5041869;28;19974;-73
2021/08/28 00:28:13;;;;;;;;;;;;;;;-144.99;100.00;52313.56;5046051;28;20052;-73
2021/08/28 00:30:40;;;;;;;;;;;;;;;-144.99;100.00;52346.19;5037023;28;19983;-73
2021/08/28 00:33:11;;;;;;;;;;;;;;;-144.99;100.00;52391.03;5032609;28;19983;-72
2021/08/28 00:35:38;;;;;;;;;;;;;;;-144.99;100.00;52370.63;5030506;28;19990;-73
2021/08/28 00:38:05;;;;;;;;;;;;;;;-144.99;100.00;52378.78;5029949;28;20003;-73
2021/08/28 00:40:31;;;;;;;;;;;;;;;-144.99;100.00;52370.63;5030564;28;19997;-72
2021/08/28 00:42:58;;;;;;;;;;;;;;;-144.99;100.00;52370.63;5031029;28;19986;-73
2021/08/28 00:45:25;;;;;;;;;;;;;;;-144.99;100.00;52348.22;5031103;28;19977;-72
2021/08/28 00:47:53;;;;;;;;;;;;;;;-144.99;100.00;52366.56;5030591;28;20014;-73
2021/08/28 00:50:21;;;;;;;;;;;;;;;-144.99;100.00;52358.41;5030056;28;19985;-72
2021/08/28 00:52:48;;;;;;;;;;;;;;;-144.99;100.00;52366.56;5030196;28;20472;-72
2021/08/28 00:55:14;;;;;;;;;;;;;;;-144.99;100.00;52378.78;5029981;28;20074;-73
2021/08/28 00:57:41;;;;;;;;;;;;;;;-144.99;100.00;52372.69;5030138;28;19972;-72
2021/08/28 01:00:08;;;;;;;;;;;;;;;-144.99;100.00;52356.38;5043967;28;19982;-70
2021/08/28 01:02:35;;;;;;;;;;;;;;;-144.99;100.00;52350.25;5039176;28;19980;-71
2021/08/28 01:05:07;;;;;;;;;;;;;;;-144.99;100.00;52354.34;5021858;28;19977;-70
2021/08/28 01:07:38;;;;;;;;;;;;;;;-144.99;100.00;52346.19;5029950;28;19973;-70
2021/08/28 01:10:06;;;;;;;;;;;;;;;-144.99;100.00;52358.41;5043112;28;19962;-70
2021/08/28 01:12:36;;;;;;;;;;;;;;;-144.99;100.00;52368.59;5029239;28;19987;-70
2021/08/28 01:15:05;;;;;;;;;;;;;;;-144.99;100.00;52309.50;5031027;28;19968;-68
2021/08/28 01:17:33;;;;;;;;;;;;;;;-144.99;100.00;52374.72;5042417;28;19979;-68
2021/08/28 01:20:02;;;;;;;;;;;;;;;-144.99;100.00;52376.75;5040299;28;19989;-68
2021/08/28 01:22:30;;;;;;;;;;;;;;;-144.99;100.00;52354.34;5029150;28;19972;-69
2021/08/28 01:24:58;;;;;;;;;;;;;;;-144.99;100.00;52350.25;5046337;28;19983;-69
2021/08/28 01:27:27;;;;;;;;;;;;;;;-144.99;100.00;52374.72;5049714;28;19974;-69
2021/08/28 01:29:55;;;;;;;;;;;;;;;-144.99;100.00;52346.19;5035052;28;20056;-69
2021/08/28 01:32:23;;;;;;;;;;;;;;;-144.99;100.00;52333.94;5030464;28;20304;-68
2021/08/28 01:34:50;;;;;;;;;;;;;;;-144.99;100.00;52366.56;5034561;28;20324;-68
2021/08/28 01:37:18;;;;;;;;;;;;;;;-144.99;100.00;52366.56;5048211;28;20005;-68
2021/08/28 01:39:45;;;;;;;;;;;;;;;-144.99;100.00;52391.03;5049099;28;20425;-71
2021/08/28 01:42:12;;;;;;;;;;;;;;;-144.99;100.00;52329.88;5049096;28;19990;-71
2021/08/28 01:44:39;;;;;;;;;;;;;;;-144.99;100.00;52344.16;5048988;28;19978;-71
2021/08/28 01:47:08;;;;;;;;;;;;;;;-144.99;100.00;52411.41;5048229;28;19996;-71
2021/08/28 01:49:35;;;;;;;;;;;;;;;-144.99;100.00;52362.50;5040895;28;20002;-72
2021/08/28 01:52:01;;;;;;;;;;;;;;;-144.99;100.00;52354.34;5029349;28;19974;-72
2021/08/28 01:54:27;;;;;;;;;;;;;;;-144.99;100.00;52362.50;5041143;28;19961;-72
2021/08/28 01:56:54;;;;;;;;;;;;;;;-144.99;100.00;52397.13;5043140;28;19974;-71
2021/08/28 01:59:20;;;;;;;;;;;;;;;-144.99;100.00;52350.25;5048449;28;19955;-71
2021/08/28 02:01:47;;;;;;;;;;;;;;;-144.99;100.00;52346.19;5046100;28;19960;-71
2021/08/28 02:04:14;;;;;;;;;;;;;;;-144.99;100.00;52366.56;5030923;28;19966;-71
2021/08/28 02:06:44;;;;;;;;;;;;;;;-144.99;100.00;52395.09;5027567;28;19996;-71
2021/08/28 02:09:16;;;;;;;;;;;;;;;-144.99;100.00;52391.03;5038223;28;20334;-70
2021/08/28 02:11:46;;;;;;;;;;;;;;;-144.99;100.00;52358.41;5047375;28;19983;-70
2021/08/28 02:14:16;;;;;;;;;;;;;;;-144.99;100.00;52350.25;5028207;28;20420;-71
2021/08/28 02:16:42;;;;;;;;;;;;;;;-144.99;100.00;52358.41;5025322;28;20003;-70
2021/08/28 02:19:11;;;;;;;;;;;;;;;-144.99;100.00;52350.25;5026365;28;19960;-72
2021/08/28 02:21:40;;;;;;;;;;;;;;;-144.99;100.00;52338.03;5045011;28;19972;-72
2021/08/28 02:24:08;;;;;;;;;;;;;;;-144.99;100.00;52350.25;5048259;28;20156;-73
2021/08/28 02:26:38;;;;;;;;;;;;;;;-144.99;100.00;52366.56;5035350;28;19999;-73
2021/08/28 02:29:05;;;;;;;;;;;;;;;-144.99;100.00;52358.41;5045773;28;19955;-73
2021/08/28 02:31:32;;;;;;;;;;;;;;;-144.99;100.00;52354.34;5034184;28;20516;-73
2021/08/28 02:34:00;;;;;;;;;;;;;;;-144.99;100.00;52376.75;5028119;28;20085;-73
2021/08/28 02:36:27;;;;;;;;;;;;;;;-144.99;100.00;52378.78;5046001;28;19971;-73
2021/08/28 02:38:56;;;;;;;;;;;;;;;-144.99;100.00;52391.03;5048026;28;20465;-73
2021/08/28 02:41:23;;;;;;;;;;;;;;;-144.99;100.00;52342.09;5048138;28;19954;-73
2021/08/28 02:43:50;;;;;;;;;;;;;;;-144.99;100.00;52391.03;4718106;23;10000555;-62
2021/08/28 02:46:17;;;;;;;;;;;;;;;-144.99;100.00;52391.03;5057894;28;19973;-62
2021/08/28 02:48:44;;;;;;;;;;;;;;;-144.99;100.00;52350.25;5060936;28;19955;-62
2021/08/28 02:51:11;;;;;;;;;;;;;;;-144.99;100.00;52366.56;5067147;28;19950;-60
2021/08/28 02:53:40;;;;;;;;;;;;;;;-144.99;100.00;52388.97;5067489;28;20224;-60
2021/08/28 02:56:08;;;;;;;;;;;;;;;-144.99;100.00;52407.31;5060725;28;19963;-60
2021/08/28 02:58:36;;;;;;;;;;;;;;;-144.99;100.00;52358.41;5048295;28;19953;-59
2021/08/28 03:01:02;;;;;;;;;;;;;;;-144.99;100.00;52346.19;5049258;28;19959;-59
2021/08/28 03:03:29;;;;;;;;;;;;;;;-144.99;100.00;52366.56;5049706;28;20453;-61
2021/08/28 03:05:55;;;;;;;;;;;;;;;-144.99;100.00;52366.56;5049196;28;19965;-61
2021/08/28 03:08:21;;;;;;;;;;;;;;;-144.99;100.00;52374.72;5057316;28;20332;-61
2021/08/28 03:10:49;;;;;;;;;;;;;;;-144.99;100.00;52391.03;5049565;28;20011;-62
2021/08/28 03:13:17;;;;;;;;;;;;;;;-144.99;100.00;52370.63;5057315;28;20040;-61
2021/08/28 03:15:44;;;;;;;;;;;;;;;-144.99;100.00;52391.03;5054928;28;19968;-61
2021/08/28 03:18:11;;;;;;;;;;;;;;;-144.99;100.00;52386.94;5060345;28;19990;-61
2021/08/28 03:20:38;;;;;;;;;;;;;;;-144.99;100.00;52342.09;5049009;28;20043;-59
2021/08/28 03:23:04;;;;;;;;;;;;;;;-144.99;100.00;52358.41;5049356;28;19972;-60
2021/08/28 03:25:31;;;;;;;;;;;;;;;-144.99;100.00;52376.75;5049750;28;19951;-59
2021/08/28 03:27:58;;;;;;;;;;;;;;;-144.99;100.00;52370.63;5051335;28;20466;-60
2021/08/28 03:30:27;;;;;;;;;;;;;;;-144.99;100.00;52325.81;5056024;28;19950;-61
2021/08/28 03:32:54;;;;;;;;;;;;;;;-144.99;100.00;52374.72;5057302;28;19951;-60
2021/08/28 03:35:20;;;;;;;;;;;;;;;-144.99;100.00;52386.94;5049496;28;19965;-61
2021/08/28 03:37:47;;;;;;;;;;;;;;;-144.99;100.00;52382.88;5048582;28;19975;-61
2021/08/28 03:40:14;;;;;;;;;;;;;;;-144.99;100.00;52384.91;5048704;28;20424;-61
2021/08/28 03:42:41;;;;;;;;;;;;;;;-144.99;100.00;52366.56;5049261;28;19957;-61
2021/08/28 03:45:09;;;;;;;;;;;;;;;-144.99;100.00;52350.25;5049943;28;19965;-59
2021/08/28 03:47:38;;;;;;;;;;;;;;;-144.99;100.00;52395.09;5049036;28;19984;-60
2021/08/28 03:50:05;;;;;;;;;;;;;;;-144.99;100.00;52419.56;5049187;28;19964;-61
2021/08/28 03:52:31;;;;;;;;;;;;;;;-144.99;100.00;52358.41;5048831;28;19955;-60
2021/08/28 03:54:58;;;;;;;;;;;;;;;-144.99;100.00;52370.63;5051640;28;19964;-59
2021/08/28 03:57:24;;;;;;;;;;;;;;;-144.99;100.00;52346.19;5049886;28;19993;-59
2021/08/28 03:59:50;;;;;;;;;;;;;;;-144.99;100.00;52362.50;5049483;28;19956;-59
2021/08/28 04:02:17;;;;;;;;;;;;;;;-144.99;100.00;52366.56;5049064;28;19971;-59
2021/08/28 04:04:44;;;;;;;;;;;;;;;-144.99;100.00;52415.47;5049301;28;19971;-59
2021/08/28 04:07:11;;;;;;;;;;;;;;;-144.99;100.00;52370.63;5058172;28;19996;-60
2021/08/28 04:09:37;;;;;;;;;;;;;;;-144.99;100.00;52374.72;5063281;28;20071;-64
2021/08/28 04:12:04;;;;;;;;;;;;;;;-144.99;100.00;52384.91;5065292;28;20516;-64
2021/08/28 04:14:30;;;;;;;;;;;;;;;-144.99;100.00;52380.84;5059965;28;20352;-64
2021/08/28 04:16:57;;;;;;;;;;;;;;;-144.99;100.00;52354.34;5053117;28;19987;-64
2021/08/28 04:19:23;;;;;;;;;;;;;;;-144.99;100.00;52329.88;5057798;28;19978;-65
2021/08/28 04:21:51;;;;;;;;;;;;;;;-144.99;100.00;52340.06;5066198;28;19981;-64
2021/08/28 04:24:17;;;;;;;;;;;;;;;-144.99;100.00;52354.34;5068677;28;19976;-64
2021/08/28 04:26:43;;;;;;;;;;;;;;;-144.99;100.00;52346.19;5069353;28;20013;-64
2021/08/28 04:29:10;;;;;;;;;;;;;;;-144.99;100.00;52333.94;5066656;28;20327;-65
2021/08/28 04:31:36;;;;;;;;;;;;;;;-144.99;100.00;52378.78;5056148;28;19988;-64
2021/08/28 04:34:03;;;;;;;;;;;;;;;-144.99;100.00;52338.03;5052118;28;19956;-64
2021/08/28 04:36:29;;;;;;;;;;;;;;;-144.99;100.00;52327.84;5048030;28;20002;-61
2021/08/28 04:38:57;;;;;;;;;;;;;;;-144.99;100.00;52352.28;5048841;28;19952;-60
2021/08/28 04:41:23;;;;;;;;;;;;;;;-144.99;100.00;52362.50;5049735;28;19970;-60
2021/08/28 04:43:49;;;;;;;;;;;;;;;-144.99;100.00;52354.34;5051084;28;19977;-60
2021/08/28 04:46:16;;;;;;;;;;;;;;;-144.99;100.00;52358.41;5048664;28;19954;-60
2021/08/28 04:48:42;;;;;;;;;;;;;;;-144.99;100.00;52386.94;5048570;28;19948;-60
2021/08/28 04:51:08;;;;;;;;;;;;;;;-144.99;100.00;52391.03;5049672;28;20388;-59
2021/08/28 04:53:35;;;;;;;;;;;;;;;-144.99;100.00;52352.28;5066291;28;19977;-60
2021/08/28 04:56:03;;;;;;;;;;;;;;;-144.99;100.00;52374.72;5065471;28;19959;-60
2021/08/28 04:58:29;;;;;;;;;;;;;;;-144.99;100.00;52382.88;5052631;28;19969;-59
2021/08/28 05:00:55;;;;;;;;;;;;;;;-144.99;100.00;52370.63;5052698;28;19951;-60
2021/08/28 05:03:22;;;;;;;;;;;;;;;-144.99;100.00;52366.56;5052239;28;20140;-59
2021/08/28 05:05:50;;;;;;;;;;;;;;;-144.99;100.00;52358.41;5051974;28;19957;-60
2021/08/28 05:08:16;;;;;;;;;;;;;;;-144.99;100.00;52366.56;5060670;28;20006;-60
2021/08/28 05:10:42;;;;;;;;;;;;;;;-144.99;100.00;52360.44;5052223;28;19960;-60
2021/08/28 05:13:10;;;;;;;;;;;;;;;-144.99;100.00;52386.94;5059854;28;19954;-60
2021/08/28 05:15:36;;;;;;;;;;;;;;;-144.99;100.00;52374.72;5057122;28;19946;-60
2021/08/28 05:18:04;;;;;;;;;;;;;;;-144.99;100.00;52307.47;5062469;28;19963;-59
2021/08/28 05:20:30;;;;;;;;;;;;;;;-144.99;100.00;52362.50;5041293;28;20067;-59
2021/08/28 05:22:57;;;;;;;;;;;;;;;-144.99;100.00;52313.56;5051432;28;19978;-60
2021/08/28 05:25:23;;;;;;;;;;;;;;;-144.99;100.00;52378.78;5051383;28;19986;-60
2021/08/28 05:27:49;;;;;;;;;;;;;;;-144.99;100.00;52350.25;5051712;28;19990;-60
2021/08/28 05:30:17;;;;;;;;;;;;;;;-144.99;100.00;52338.03;5051160;28;19981;-60
2021/08/28 05:32:44;;;;;;;;;;;;;;;-144.99;100.00;52366.56;5064792;28;19971;-59
2021/08/28 05:35:11;;;;;;;;;;;;;;;-144.99;100.00;52362.50;5051778;28;19924;-59
2021/08/28 05:37:37;;;;;;;;;;;;;;;-144.99;100.00;52346.19;5050583;28;19975;-60
2021/08/28 05:40:06;;;;;;;;;;;;;;;-144.99;100.00;52391.03;5051345;28;19960;-59
2021/08/28 05:42:32;;;;;;;;;;;;;;;-144.99;100.00;52378.78;5052228;28;20408;-59
2021/08/28 05:44:59;;;;;;;;;;;;;;;-144.99;100.00;52321.72;5051605;28;19958;-60
2021/08/28 05:47:27;;;;;;;;;;;;;;;-144.99;100.00;52338.03;5051555;28;19977;-61
2021/08/28 05:49:53;;;;;;;;;;;;;;;-144.99;100.00;52329.88;5051131;28;19984;-62
2021/08/28 05:52:19;;;;;;;;;;;;;;;-144.99;100.00;52354.34;5050892;28;19982;-59
2021/08/28 05:54:46;;;;;;;;;;;;;;;-144.99;100.00;52348.22;5052003;28;19978;-60
2021/08/28 05:57:12;;;;;;;;;;;;;;;-144.99;100.00;52366.56;5054178;28;20021;-61
2021/08/28 05:59:38;;;;;;;;;;;;;;;-144.99;100.00;52360.44;5051374;28;19967;-61
2021/08/28 06:02:05;;;;;;;;;;;;;;;-144.99;100.00;52374.72;5050546;28;20421;-60
2021/08/28 06:04:32;;;;;;;;;;;;;;;-144.99;100.00;52382.88;5051030;28;20461;-62
2021/08/28 06:06:59;;;;;;;;;;;;;;;-144.99;100.00;52391.03;5058827;28;20408;-61
2021/08/28 06:09:25;;;;;;;;;;;;;;;-144.99;100.00;52356.38;5058102;28;19977;-61
2021/08/28 06:11:51;;;;;;;;;;;;;;;-144.99;100.00;52358.41;5051054;28;19963;-61
2021/08/28 06:14:18;;;;;;;;;;;;;;;-144.99;100.00;52338.03;5059754;28;19945;-60
2021/08/28 06:16:44;;;;;;;;;;;;;;;-144.99;100.00;52333.94;5054963;28;20342;-61
2021/08/28 06:19:10;;;;;;;;;;;;;;;-144.99;100.00;52382.88;5061616;28;19957;-61
2021/08/28 06:21:38;;;;;;;;;;;;;;;-144.99;100.00;52358.41;5051090;28;19975;-62
2021/08/28 06:24:05;;;;;;;;;;;;;;;-144.99;100.00;52358.41;5050849;28;19983;-62
2021/08/28 06:26:31;;;;;;;;;;;;;;;-144.99;100.00;52342.09;5050610;28;20006;-62
2021/08/28 06:28:57;;;;;;;;;;;;;;;-144.99;100.00;52368.59;5051337;28;19984;-63
2021/08/28 06:31:24;;;;;;;;;;;;;;;-144.99;100.00;52358.41;5049419;28;19975;-61
2021/08/28 06:33:50;;;;;;;;;;;;;;;-144.99;100.00;52321.72;5054176;28;19954;-59
2021/08/28 06:36:16;;;;;;;;;;;;;;;-144.99;100.00;52391.03;5049196;28;19960;-60
2021/08/28 06:38:44;;;;;;;;;;;;;;;-144.99;100.00;52356.38;5049962;28;20366;-59
2021/08/28 06:41:11;;;;;;;;;;;;;;;-144.99;100.00;52366.56;5050481;28;19964;-60
2021/08/28 06:43:37;;;;;;;;;;;;;;;-144.99;100.00;52338.03;5050100;28;20356;-60
2021/08/28 06:46:03;;;;;;;;;;;;;;;-144.99;100.00;52350.25;5049930;28;20310;-60
2021/08/28 06:48:30;;;;;;;;;;;;;;;-144.99;100.00;52382.88;5049494;28;19983;-60
2021/08/28 06:50:56;;;;;;;;;;;;;;;-144.99;100.00;52362.50;5049901;28;19953;-60
2021/08/28 06:53:22;;;;;;;;;;;;;;;-144.99;100.00;52338.03;5050059;28;19955;-60
2021/08/28 06:55:50;;;;;;;;;;;;;;;-144.99;100.00;52362.50;5053388;28;19961;-60
2021/08/28 06:58:17;;;;;;;;;;;;;;;-144.99;100.00;52362.50;5049933;28;19975;-60
2021/08/28 07:00:44;;;;;;;;;;;;;;;-144.99;100.00;52350.25;5049768;28;19957;-59
2021/08/28 07:03:10;;;;;;;;;;;;;;;-144.99;100.00;52346.19;5049773;28;19960;-60
2021/08/28 07:05:36;;;;;;;;;;;;;;;-144.99;100.00;52329.88;5048807;28;19959;-59
2021/08/28 07:08:03;;;;;;;;;;;;;;;-144.99;100.00;52333.94;5062067;28;19968;-60
2021/08/28 07:10:29;;;;;;;;;;;;;;;-144.99;100.00;52344.16;5049842;28;19952;-59
2021/08/28 07:12:57;;;;;;;;;;;;;;;-144.99;100.00;52317.66;5055804;28;19958;-59
2021/08/28 07:15:24;;;;;;;;;;;;;;;-144.99;100.00;52285.03;5056533;28;19954;-61
2021/08/28 07:17:50;;;;;;;;;;;;;;;-144.99;100.00;52325.81;5058042;28;20409;-62
2021/08/28 07:20:17;;;;;;;;;;;;;;;-144.99;100.00;52317.66;5051096;28;20311;-61
2021/08/28 07:22:43;;;;;;;;;;;;;;;-144.99;100.00;52309.50;5049189;28;20459;-62
2021/08/28 07:25:10;;;;;;;;;;;;;;;-144.99;100.00;52360.44;5050077;28;19990;-62
2021/08/28 07:27:37;;;;;;;;;;;;;;;-144.99;100.00;52319.69;5049652;28;19972;-62
2021/08/28 07:30:05;;;;;;;;;;;;;;;-144.99;100.00;52346.19;5049284;28;19955;-62
2021/08/28 07:32:31;;;;;;;;;;;;;;;-144.99;100.00;52336.00;5057688;28;19967;-62
2021/08/28 07:34:58;;;;;;;;;;;;;;;-144.99;100.00;52285.03;5036966;28;19987;-62
2021/08/28 07:37:24;;;;;;;;;;;;;;;-144.99;100.00;52333.94;5048969;28;20081;-62
2021/08/28 07:39:50;;;;;;;;;;;;;;;-144.99;100.00;52329.88;5049380;28;20042;-62
2021/08/28 07:42:17;;;;;;;;;;;;;;;-144.99;100.00;52338.03;5049364;28;19976;-61
2021/08/28 07:44:43;;;;;;;;;;;;;;;-144.99;100.00;52358.41;5049789;28;19979;-62
2021/08/28 07:47:11;;;;;;;;;;;;;;;-144.99;100.00;52325.81;5049350;28;19979;-62
2021/08/28 07:49:37;;;;;;;;;;;;;;;-144.99;100.00;52325.81;5049781;28;19960;-62
2021/08/28 07:52:04;;;;;;;;;;;;;;;-144.99;100.00;52362.50;5049122;28;19924;-62
2021/08/28 07:54:30;;;;;;;;;;;;;;;-144.99;100.00;52348.22;5049761;28;19963;-62
2021/08/28 07:56:59;;;;;;;;;;;;;;;-144.99;100.00;52346.19;5052410;28;19986;-62
2021/08/28 07:59:25;;;;;;;;;;;;;;;-144.99;100.00;52313.56;5049434;28;19978;-62
2021/08/28 08:01:53;;;;;;;;;;;;;;;-144.99;100.00;52342.09;5049297;28;19996;-62
2021/08/28 08:04:20;;;;;;;;;;;;;;;-144.99;100.00;52360.44;5049711;28;19978;-62
2021/08/28 08:06:47;;;;;;;;;;;;;;;-144.99;100.00;52354.34;5057321;28;19982;-62
2021/08/28 08:09:15;;;;;;;;;;;;;;;-144.99;100.00;52376.75;5048858;28;19972;-62
2021/08/28 08:11:41;;;;;;;;;;;;;;;-144.99;100.00;52356.38;5047884;28;20053;-61
2021/08/28 08:14:08;;;;;;;;;;;;;;;-144.99;100.00;52401.22;5048870;28;19961;-61
2021/08/28 08:16:34;;;;;;;;;;;;;;;-144.99;100.00;52342.09;5044361;28;20030;-61
2021/08/28 08:19:00;;;;;;;;;;;;;;;-144.99;100.00;52358.41;5049549;28;19995;-61
2021/08/28 08:21:28;;;;;;;;;;;;;;;-144.99;100.00;52348.22;5048759;28;19979;-62
2021/08/28 08:23:54;;;;;;;;;;;;;;;-144.99;100.00;52333.94;5047403;28;19978;-63
2021/08/28 08:26:21;;;;;;;;;;;;;;;-144.99;100.00;52340.06;5049100;28;19990;-63
2021/08/28 08:28:47;;;;;;;;;;;;;;;-144.99;100.00;52366.56;5052006;28;20402;-63
2021/08/28 08:31:13;;;;;;;;;;;;;;;-144.99;100.00;52333.94;5062928;28;20330;-62
2021/08/28 08:33:40;;;;;;;;;;;;;;;-144.99;100.00;52370.63;5039284;28;19990;-63
2021/08/28 08:36:07;;;;;;;;;;;;;;;-144.99;100.00;52362.50;5037645;28;19976;-62
2021/08/28 08:38:34;;;;;;;;;;;;;;;-144.99;100.00;52346.19;5045430;28;20006;-63
2021/08/28 08:41:01;;;;;;;;;;;;;;;-144.99;100.00;52319.69;5045884;28;19976;-62
2021/08/28 08:43:27;;;;;;;;;;;;;;;-144.99;100.00;52364.53;5050164;28;19975;-62
2021/08/28 08:45:54;;;;;;;;;;;;;;;-144.99;100.00;52382.88;5045023;28;19999;-62
2021/08/28 08:48:22;;;;;;;;;;;;;;;-144.99;100.00;52329.88;5048551;28;20000;-68
2021/08/28 08:50:49;;;;;;;;;;;;;;;-144.99;100.00;52350.25;5051568;28;20021;-68
2021/08/28 08:53:16;;;;;;;;;;;;;;;-144.99;100.00;52313.56;5054753;28;19971;-69
2021/08/28 08:55:44;;;;;;;;;;;;;;;-144.99;100.00;52329.88;5047514;28;20030;-69
2021/08/28 08:58:11;;;;;;;;;;;;;;;-144.99;100.00;52342.09;5044572;28;19994;-69
2021/08/28 09:00:38;;;;;;;;;;;;;;;-144.99;100.00;52352.28;5047274;28;19983;-70
2021/08/28 09:03:04;;;;;;;;;;;;;;;-144.99;100.00;52313.56;5040958;28;19968;-69
2021/08/28 09:05:30;;;;;;;;;;;;;;;-144.99;100.00;52268.72;5046445;28;20052;-68
2021/08/28 09:07:57;;;;;;;;;;;;;;;-144.99;100.00;52386.94;5044162;28;20471;-68
2021/08/28 09:10:23;;;;;;;;;;;;;;;-144.99;100.00;52317.66;5041406;28;20379;-69
2021/08/28 09:12:51;;;;;;;;;;;;;;;-144.99;100.00;52338.03;5049126;28;19958;-67
2021/08/28 09:15:17;;;;;;;;;;;;;;;-144.99;100.00;52338.03;5047206;28;19971;-67
2021/08/28 09:17:44;;;;;;;;;;;;;;;-144.99;100.00;52346.19;4699912;28;10000368;-69
2021/08/28 09:20:20;;;;;;;;;;;;;;;-144.99;100.00;52309.50;5046544;28;19966;-71
2021/08/28 09:22:46;;;;;;;;;;;;;;;-144.99;100.00;52325.81;5043195;28;20133;-70
2021/08/28 09:25:13;;;;;;;;;;;;;;;-144.99;100.00;52309.50;5046454;28;20355;-68
2021/08/28 09:27:41;;;;;;;;;;;;;;;-144.99;100.00;52329.88;5047088;28;19994;-69
2021/08/28 09:30:19;;;;;;;;;;;;;;;-144.99;100.00;52372.69;5044402;28;19983;-68
2021/08/28 09:32:46;;;;;;;;;;;;;;;-144.99;100.00;52376.75;5050121;28;19975;-68
2021/08/28 09:35:12;;;;;;;;;;;;;;;-144.99;100.00;52329.88;5050387;28;19982;-72
2021/08/28 09:37:39;;;;;;;;;;;;;;;-144.99;100.00;52293.19;5047245;28;20387;-68
2021/08/28 09:40:06;;;;;;;;;;;;;;;-144.99;100.00;52348.22;5045908;28;20357;-68
2021/08/28 09:42:32;;;;;;;;;;;;;;;-144.99;100.00;52307.47;5048441;28;19962;-70
2021/08/28 09:45:08;;;;;;;;;;;;;;;-144.99;100.00;52321.72;5045025;28;19979;-69
2021/08/28 09:47:35;;;;;;;;;;;;;;;-144.99;100.00;52350.25;5046147;28;20447;-68
2021/08/28 09:50:02;;;;;;;;;;;;;;;-144.99;100.00;52301.34;5046059;28;20349;-70
2021/08/28 09:52:28;;;;;;;;;;;;;;;-144.99;100.00;52321.72;5052714;28;19971;-68
2021/08/28 09:54:56;;;;;;;;;;;;;;;-144.99;100.00;52293.19;5053912;28;20440;-68
2021/08/28 09:57:27;;;;;;;;;;;;;;;-144.99;100.00;52305.41;5046683;28;20796;-71
2021/08/28 09:59:57;;;;;;;;;;;;;;;-144.99;100.00;52301.34;5046600;28;20534;-69
2021/08/28 10:02:23;;;;;;;;;;;;;;;-144.99;100.00;52301.34;5059340;28;19967;-69
2021/08/28 10:04:54;;;;;;;;;;;;;;;-144.99;100.00;52340.06;5046639;28;19984;-69
2021/08/28 10:07:22;;;;;;;;;;;;;;;-144.99;100.00;52348.22;5040161;28;19997;-69
2021/08/28 10:09:48;;;;;;;;;;;;;;;-144.99;100.00;52283.00;5053129;28;19985;-68
2021/08/28 10:12:17;;;;;;;;;;;;;;;-144.99;100.00;52325.81;5058256;28;19947;-69
2021/08/28 10:14:43;;;;;;;;;;;;;;;-144.99;100.00;52293.19;5058474;28;19971;-69
2021/08/28 10:17:10;;;;;;;;;;;;;;;-144.99;100.00;52354.34;5059408;28;19965;-69
2021/08/28 10:19:36;;;;;;;;;;;;;;;-144.99;100.00;52323.75;5063982;28;19978;-70
2021/08/28 10:22:04;;;;;;;;;;;;;;;-144.99;100.00;52350.25;5050606;28;20130;-70
2021/08/28 10:24:31;;;;;;;;;;;;;;;-144.99;99.62;52346.19;5056171;28;19962;-70
2021/08/28 10:26:57;;;;;;;;;;;;;;;-144.99;100.00;52350.25;5053392;28;19964;-69
2021/08/28 10:29:24;;;;;;;;;;;;;;;-144.99;100.00;52321.72;5050294;28;20001;-72
2021/08/28 10:31:50;;;;;;;;;;;;;;;-144.99;100.00;52305.41;5052152;28;19946;-69
2021/08/28 10:34:17;;;;;;;;;;;;;;;-144.99;100.00;52289.13;5049880;28;19959;-69
2021/08/28 10:36:44;;;;;;;;;;;;;;;-144.99;100.00;52278.91;5050815;28;20615;-69
2021/08/28 10:39:12;;;;;;;;;;;;;;;-144.99;100.00;52293.19;5050105;28;19977;-70
2021/08/28 10:41:38;;;;;;;;;;;;;;;-144.99;97.84;52276.88;5059096;28;19948;-68
2021/08/28 10:44:05;;;;;;;;;;;;;;;-144.99;95.91;52301.34;5045729;28;19969;-70
2021/08/28 10:46:32;;;;;;;;;;;;;;;-144.99;93.97;52311.53;5048814;28;19975;-69
2021/08/28 10:49:00;;;;;;;;;;;;;;;-144.99;93.01;52293.19;5055824;28;19956;-70
2021/08/28 10:51:27;;;;;;;;;;;;;;;-144.99;92.28;52280.97;5064019;28;19947;-68
2021/08/28 10:53:55;;;;;;;;;;;;;;;-144.99;92.44;52315.59;5055910;28;20446;-69
2021/08/28 10:56:34;;;;;;;;;;;;;;;-144.99;91.60;52305.41;5045908;28;19949;-71
2021/08/28 10:59:15;;;;;;;;;;;;;;;-144.99;91.60;52331.91;5053763;28;20454;-69
2021/08/28 11:01:49;;;;;;;;;;;;;;;-144.99;91.91;52342.09;5043676;28;19962;-70
2021/08/28 11:04:30;;;;;;;;;;;;;;;-144.99;92.61;52315.59;5041575;28;19962;-69
2021/08/28 11:07:11;;;;;;;;;;;;;;;-144.99;92.86;52340.06;5042070;28;19974;-68
2021/08/28 11:09:52;;;;;;;;;;;;;;;-144.99;93.64;52317.66;5043796;28;19950;-69
2021/08/28 11:12:20;;;;;;;;;;;;;;;-144.99;94.03;52325.81;5047087;28;19955;-71
2021/08/28 11:14:46;;;;;;;;;;;;;;;-144.99;94.01;52350.25;5052548;28;19945;-70
2021/08/28 11:17:13;;;;;;;;;;;;;;;-144.99;94.16;52366.56;5049279;28;19952;-68
2021/08/28 11:19:48;;;;;;;;;;;;;;;-144.99;94.25;52325.81;5049492;28;20054;-69
2021/08/28 11:22:20;;;;;;;;;;;;;;;-144.99;94.46;52317.66;5054344;28;19954;-69
2021/08/28 11:24:54;;;;;;;;;;;;;;;-144.99;94.39;52321.72;5069725;28;19954;-69
2021/08/28 11:27:36;;;;;;;;;;;;;;;-144.99;94.76;52309.50;5070493;28;19994;-68
2021/08/28 11:30:02;;;;;;;;;;;;;;;-144.99;94.03;52346.19;5058218;28;19940;-68
2021/08/28 11:32:28;;;;;;;;;;;;;;;-144.99;94.14;52309.50;5045642;28;19979;-68
2021/08/28 11:34:56;;;;;;;;;;;;;;;-144.99;93.83;52344.16;5039889;28;20273;-68
2021/08/28 11:37:42;;;;;;;;;;;;;;;-144.99;94.34;52333.94;5049920;28;19977;-69
2021/08/28 11:40:38;;;;;;;;;;;;;;;-144.99;95.02;52338.03;5050102;28;19965;-68
2021/08/28 11:43:07;;;;;;;;;;;;;;;-144.99;95.10;52315.59;4967684;28;20022;-68
2021/08/28 11:45:35;;;;;;;;;;;;;;;-144.99;95.83;52346.19;5032042;28;20012;-69
2021/08/28 11:48:06;;;;;;;;;;;;;;;-144.99;96.28;52342.09;5048357;28;20071;-69
2021/08/28 11:50:33;;;;;;;;;;;;;;;-144.99;96.92;52342.09;5049102;28;20007;-69
2021/08/28 11:52:59;;;;;;;;;;;;;;;-144.99;97.31;52356.38;5058764;28;19943;-68
2021/08/28 11:55:26;;;;;;;;;;;;;;;-144.99;97.86;52325.81;5044358;28;19925;-68
2021/08/28 11:58:07;;;;;;;;;;;;;;;-144.99;98.04;52325.81;5040496;28;19991;-68
2021/08/28 12:00:34;;;;;;;;;;;;;;;-144.99;97.94;52313.56;5058533;28;20489;-68
2021/08/28 12:03:01;;;;;;;;;;;;;;;-144.99;98.34;52309.50;5039699;28;19990;-68
2021/08/28 12:05:29;;;;;;;;;;;;;;;-144.99;98.20;52362.50;5055151;28;19975;-71
2021/08/28 12:07:55;;;;;;;;;;;;;;;-144.99;98.55;52329.88;5059412;28;19989;-69
2021/08/28 12:10:22;;;;;;;;;;;;;;;-144.99;98.54;52313.56;5054746;28;19936;-68
2021/08/28 12:12:56;;;;;;;;;;;;;;;-144.99;97.98;52311.53;5059790;28;19982;-68
2021/08/28 12:15:24;;;;;;;;;;;;;;;-144.99;97.48;52301.34;5060358;28;19980;-70
2021/08/28 12:17:50;;;;;;;;;;;;;;;-144.99;97.45;52313.56;5052562;28;19996;-69
2021/08/28 12:20:23;;;;;;;;;;;;;;;-144.99;96.44;52338.03;5052515;28;20496;-69